Terminal Aerodrome Forecast
Issued by NWS

Home | Current Version | Previous Version | Text Only | Print | Product List | Glossary On
Versions: 1 2 3 4 5 6 7 8 9 10 11 12 13 14 15 16 17 18 19 20
000
FTUS46 KSEW 221700
TAFCLM
TAF
KCLM 221738Z 2218/2318 31007KT P6SM VCSH OVC009
     FM222000 31011KT P6SM -SHRA VCTS BKN015 BKN060CB BKN110
     FM222200 31011KT P6SM -SHRA VCTS SCT028 BKN060CB BKN110
     FM230100 28011KT P6SM VCSH SCT028 BKN060 BKN110
     FM230600 28008KT P6SM OVC022
     FM231200 28005KT P6SM OVC011=

USA.gov is the U.S. government's official web portal to all federal, state and local government web resources and services.